sensor_id;sensor_type;location;lat;lon;timestamp;temperature;humidity
35463;DHT22;21578;47.892;9.970;2023-06-14T00:03:42;14.50;61.40
35463;DHT22;21578;47.892;9.970;2023-06-14T00:08:31;14.50;61.60
35463;DHT22;21578;47.892;9.970;2023-06-14T00:13:18;14.50;62.10
35463;DHT22;21578;47.892;9.970;2023-06-14T00:18:05;14.40;62.20
35463;DHT22;21578;47.892;9.970;2023-06-14T00:22:51;14.40;62.70
35463;DHT22;21578;47.892;9.970;2023-06-14T00:27:40;14.30;62.80
35463;DHT22;21578;47.892;9.970;2023-06-14T00:32:27;14.40;63.10
35463;DHT22;21578;47.892;9.970;2023-06-14T00:37:14;14.40;63.10
35463;DHT22;21578;47.892;9.970;2023-06-14T00:42:01;14.30;63.60
35463;DHT22;21578;47.892;9.970;2023-06-14T00:46:49;14.20;64.60
35463;DHT22;21578;47.892;9.970;2023-06-14T00:51:37;14.00;64.70
35463;DHT22;21578;47.892;9.970;2023-06-14T00:56:25;13.90;65.40
35463;DHT22;21578;47.892;9.970;2023-06-14T01:01:13;13.80;66.00
35463;DHT22;21578;47.892;9.970;2023-06-14T01:06:13;13.70;66.40
35463;DHT22;21578;47.892;9.970;2023-06-14T01:11:04;13.70;66.50
35463;DHT22;21578;47.892;9.970;2023-06-14T01:15:52;13.80;66.00
35463;DHT22;21578;47.892;9.970;2023-06-14T01:20:41;13.90;65.60
35463;DHT22;21578;47.892;9.970;2023-06-14T01:25:29;13.90;65.80
35463;DHT22;21578;47.892;9.970;2023-06-14T01:30:17;13.90;66.40
35463;DHT22;21578;47.892;9.970;2023-06-14T01:35:05;13.80;66.20
35463;DHT22;21578;47.892;9.970;2023-06-14T01:39:52;13.80;66.00
35463;DHT22;21578;47.892;9.970;2023-06-14T01:44:42;13.80;66.40
35463;DHT22;21578;47.892;9.970;2023-06-14T01:49:29;13.80;66.80
35463;DHT22;21578;47.892;9.970;2023-06-14T01:54:16;13.70;67.00
35463;DHT22;21578;47.892;9.970;2023-06-14T01:59:03;13.60;67.60
35463;DHT22;21578;47.892;9.970;2023-06-14T02:03:51;13.50;68.00
35463;DHT22;21578;47.892;9.970;2023-06-14T02:08:39;13.60;67.70
35463;DHT22;21578;47.892;9.970;2023-06-14T02:13:26;13.60;67.80
35463;DHT22;21578;47.892;9.970;2023-06-14T02:18:13;13.50;67.70
35463;DHT22;21578;47.892;9.970;2023-06-14T02:23:01;13.50;67.80
35463;DHT22;21578;47.892;9.970;2023-06-14T02:27:48;13.40;68.10
35463;DHT22;21578;47.892;9.970;2023-06-14T02:32:35;13.40;68.60
35463;DHT22;21578;47.892;9.970;2023-06-14T02:37:22;13.30;69.40
35463;DHT22;21578;47.892;9.970;2023-06-14T02:42:10;13.30;69.20
35463;DHT22;21578;47.892;9.970;2023-06-14T02:46:57;13.10;70.60
35463;DHT22;21578;47.892;9.970;2023-06-14T02:51:46;13.00;71.40
35463;DHT22;21578;47.892;9.970;2023-06-14T02:56:33;12.80;71.70
35463;DHT22;21578;47.892;9.970;2023-06-14T03:01:21;12.70;72.40
35463;DHT22;21578;47.892;9.970;2023-06-14T03:06:08;12.70;72.50
35463;DHT22;21578;47.892;9.970;2023-06-14T03:10:58;12.60;72.80
35463;DHT22;21578;47.892;9.970;2023-06-14T03:15:45;12.50;72.70
35463;DHT22;21578;47.892;9.970;2023-06-14T03:20:34;12.50;73.20
35463;DHT22;21578;47.892;9.970;2023-06-14T03:25:21;12.40;73.30
35463;DHT22;21578;47.892;9.970;2023-06-14T03:30:09;12.30;73.40
35463;DHT22;21578;47.892;9.970;2023-06-14T03:34:56;12.30;73.80
35463;DHT22;21578;47.892;9.970;2023-06-14T03:39:44;12.40;72.20
35463;DHT22;21578;47.892;9.970;2023-06-14T03:44:33;12.50;71.90
35463;DHT22;21578;47.892;9.970;2023-06-14T03:49:20;12.50;71.00
35463;DHT22;21578;47.892;9.970;2023-06-14T03:54:07;12.40;71.60
35463;DHT22;21578;47.892;9.970;2023-06-14T03:58:55;12.30;72.30
35463;DHT22;21578;47.892;9.970;2023-06-14T04:03:42;12.10;73.60
35463;DHT22;21578;47.892;9.970;2023-06-14T04:08:29;11.90;74.70
35463;DHT22;21578;47.892;9.970;2023-06-14T04:13:15;11.90;74.60
35463;DHT22;21578;47.892;9.970;2023-06-14T04:18:07;12.00;74.80
35463;DHT22;21578;47.892;9.970;2023-06-14T04:22:56;12.00;74.90
35463;DHT22;21578;47.892;9.970;2023-06-14T04:27:43;12.00;75.80
35463;DHT22;21578;47.892;9.970;2023-06-14T04:32:32;11.90;76.40
35463;DHT22;21578;47.892;9.970;2023-06-14T04:37:25;11.80;77.70
35463;DHT22;21578;47.892;9.970;2023-06-14T04:42:13;11.80;78.10
35463;DHT22;21578;47.892;9.970;2023-06-14T04:47:01;11.90;78.30
35463;DHT22;21578;47.892;9.970;2023-06-14T04:51:48;12.00;78.50
35463;DHT22;21578;47.892;9.970;2023-06-14T04:56:38;12.20;77.70
35463;DHT22;21578;47.892;9.970;2023-06-14T05:01:24;12.50;76.30
35463;DHT22;21578;47.892;9.970;2023-06-14T05:06:12;12.90;74.10
35463;DHT22;21578;47.892;9.970;2023-06-14T05:11:04;13.20;73.50
35463;DHT22;21578;47.892;9.970;2023-06-14T05:15:52;13.20;73.20
35463;DHT22;21578;47.892;9.970;2023-06-14T05:20:40;13.40;73.40
35463;DHT22;21578;47.892;9.970;2023-06-14T05:25:27;13.50;73.40
35463;DHT22;21578;47.892;9.970;2023-06-14T05:30:15;13.70;73.10
35463;DHT22;21578;47.892;9.970;2023-06-14T05:35:04;13.80;73.70
35463;DHT22;21578;47.892;9.970;2023-06-14T05:39:51;13.90;73.70
35463;DHT22;21578;47.892;9.970;2023-06-14T05:44:42;14.10;73.30
35463;DHT22;21578;47.892;9.970;2023-06-14T05:49:29;14.30;72.40
35463;DHT22;21578;47.892;9.970;2023-06-14T05:54:17;14.50;71.80
35463;DHT22;21578;47.892;9.970;2023-06-14T05:59:04;14.60;70.70
35463;DHT22;21578;47.892;9.970;2023-06-14T06:03:51;14.80;70.30
35463;DHT22;21578;47.892;9.970;2023-06-14T06:08:38;15.00;69.30
35463;DHT22;21578;47.892;9.970;2023-06-14T06:13:27;15.20;69.40
35463;DHT22;21578;47.892;9.970;2023-06-14T06:18:14;15.30;68.50
35463;DHT22;21578;47.892;9.970;2023-06-14T06:23:01;15.50;68.40
35463;DHT22;21578;47.892;9.970;2023-06-14T06:27:48;15.70;68.30
35463;DHT22;21578;47.892;9.970;2023-06-14T06:32:37;15.90;67.10
35463;DHT22;21578;47.892;9.970;2023-06-14T06:37:27;16.10;67.10
35463;DHT22;21578;47.892;9.970;2023-06-14T06:42:16;16.20;68.30
35463;DHT22;21578;47.892;9.970;2023-06-14T06:47:04;16.30;65.70
35463;DHT22;21578;47.892;9.970;2023-06-14T06:52:10;16.50;65.80
35463;DHT22;21578;47.892;9.970;2023-06-14T06:56:57;16.70;65.60
35463;DHT22;21578;47.892;9.970;2023-06-14T07:06:48;17.00;62.50
35463;DHT22;21578;47.892;9.970;2023-06-14T07:11:36;17.20;62.40
35463;DHT22;21578;47.892;9.970;2023-06-14T07:16:23;17.40;60.70
35463;DHT22;21578;47.892;9.970;2023-06-14T07:21:12;17.60;60.60
35463;DHT22;21578;47.892;9.970;2023-06-14T07:25:59;17.70;57.70
35463;DHT22;21578;47.892;9.970;2023-06-14T07:30:47;17.90;58.30
35463;DHT22;21578;47.892;9.970;2023-06-14T07:35:34;18.00;56.90
35463;DHT22;21578;47.892;9.970;2023-06-14T07:40:21;18.10;57.70
35463;DHT22;21578;47.892;9.970;2023-06-14T07:45:09;18.20;56.00
35463;DHT22;21578;47.892;9.970;2023-06-14T07:50:00;18.40;56.80
35463;DHT22;21578;47.892;9.970;2023-06-14T07:54:46;18.50;54.40
35463;DHT22;21578;47.892;9.970;2023-06-14T07:59:33;18.60;55.10
35463;DHT22;21578;47.892;9.970;2023-06-14T08:04:21;18.70;55.40
35463;DHT22;21578;47.892;9.970;2023-06-14T08:09:09;18.80;56.10
35463;DHT22;21578;47.892;9.970;2023-06-14T08:13:56;18.80;56.60
35463;DHT22;21578;47.892;9.970;2023-06-14T08:18:43;18.80;56.40
35463;DHT22;21578;47.892;9.970;2023-06-14T08:23:30;19.00;55.60
35463;DHT22;21578;47.892;9.970;2023-06-14T08:28:18;19.00;56.10
35463;DHT22;21578;47.892;9.970;2023-06-14T08:33:05;19.00;56.50
35463;DHT22;21578;47.892;9.970;2023-06-14T08:37:52;19.20;55.90
35463;DHT22;21578;47.892;9.970;2023-06-14T08:42:38;19.30;53.30
35463;DHT22;21578;47.892;9.970;2023-06-14T08:47:28;19.50;54.30
35463;DHT22;21578;47.892;9.970;2023-06-14T08:52:22;19.50;54.80
35463;DHT22;21578;47.892;9.970;2023-06-14T08:57:11;19.60;54.10
35463;DHT22;21578;47.892;9.970;2023-06-14T09:02:00;19.80;53.20
35463;DHT22;21578;47.892;9.970;2023-06-14T09:06:52;19.90;54.50
35463;DHT22;21578;47.892;9.970;2023-06-14T09:11:43;20.00;54.70
35463;DHT22;21578;47.892;9.970;2023-06-14T09:16:32;20.10;52.50
35463;DHT22;21578;47.892;9.970;2023-06-14T09:21:19;20.30;52.10
35463;DHT22;21578;47.892;9.970;2023-06-14T09:26:11;20.50;51.30
35463;DHT22;21578;47.892;9.970;2023-06-14T09:31:00;20.40;51.00
35463;DHT22;21578;47.892;9.970;2023-06-14T09:35:51;20.60;50.40
35463;DHT22;21578;47.892;9.970;2023-06-14T09:40:38;20.70;50.40
35463;DHT22;21578;47.892;9.970;2023-06-14T09:45:27;21.00;50.40
35463;DHT22;21578;47.892;9.970;2023-06-14T09:50:15;21.20;51.00
35463;DHT22;21578;47.892;9.970;2023-06-14T09:55:11;21.20;50.10
35463;DHT22;21578;47.892;9.970;2023-06-14T10:00:01;21.20;49.90
35463;DHT22;21578;47.892;9.970;2023-06-14T10:05:03;21.20;49.20
35463;DHT22;21578;47.892;9.970;2023-06-14T10:09:52;21.10;50.20
35463;DHT22;21578;47.892;9.970;2023-06-14T10:14:39;21.30;48.90
35463;DHT22;21578;47.892;9.970;2023-06-14T10:19:41;21.50;49.50
35463;DHT22;21578;47.892;9.970;2023-06-14T10:24:41;21.70;49.80
35463;DHT22;21578;47.892;9.970;2023-06-14T10:29:31;22.00;49.60
35463;DHT22;21578;47.892;9.970;2023-06-14T10:34:28;22.10;48.00
35463;DHT22;21578;47.892;9.970;2023-06-14T10:39:17;22.00;49.10
35463;DHT22;21578;47.892;9.970;2023-06-14T10:49:40;22.10;49.50
35463;DHT22;21578;47.892;9.970;2023-06-14T10:54:28;22.40;48.60
35463;DHT22;21578;47.892;9.970;2023-06-14T10:59:16;22.60;48.70
35463;DHT22;21578;47.892;9.970;2023-06-14T11:04:09;22.70;46.20
35463;DHT22;21578;47.892;9.970;2023-06-14T11:09:20;22.40;48.10
35463;DHT22;21578;47.892;9.970;2023-06-14T11:14:11;22.70;47.50
35463;DHT22;21578;47.892;9.970;2023-06-14T11:18:59;22.90;49.10
35463;DHT22;21578;47.892;9.970;2023-06-14T11:23:50;23.50;47.40
35463;DHT22;21578;47.892;9.970;2023-06-14T11:28:42;23.70;46.30
35463;DHT22;21578;47.892;9.970;2023-06-14T11:33:29;24.00;45.70
35463;DHT22;21578;47.892;9.970;2023-06-14T11:38:18;24.10;45.90
35463;DHT22;21578;47.892;9.970;2023-06-14T11:43:05;24.10;44.60
35463;DHT22;21578;47.892;9.970;2023-06-14T11:47:54;23.90;43.90
35463;DHT22;21578;47.892;9.970;2023-06-14T11:52:43;24.00;46.10
35463;DHT22;21578;47.892;9.970;2023-06-14T11:57:34;23.90;45.80
35463;DHT22;21578;47.892;9.970;2023-06-14T12:02:22;24.10;46.20
35463;DHT22;21578;47.892;9.970;2023-06-14T12:07:15;24.60;44.40
35463;DHT22;21578;47.892;9.970;2023-06-14T12:12:04;24.80;43.50
35463;DHT22;21578;47.892;9.970;2023-06-14T12:16:52;24.90;43.50
35463;DHT22;21578;47.892;9.970;2023-06-14T12:21:51;25.20;42.30
35463;DHT22;21578;47.892;9.970;2023-06-14T12:26:40;25.30;44.50
35463;DHT22;21578;47.892;9.970;2023-06-14T12:31:27;25.40;43.20
35463;DHT22;21578;47.892;9.970;2023-06-14T12:36:14;25.20;43.40
35463;DHT22;21578;47.892;9.970;2023-06-14T12:41:13;24.80;45.70
35463;DHT22;21578;47.892;9.970;2023-06-14T12:46:02;25.10;43.90
35463;DHT22;21578;47.892;9.970;2023-06-14T12:50:49;25.20;44.10
35463;DHT22;21578;47.892;9.970;2023-06-14T12:55:36;24.60;44.80
35463;DHT22;21578;47.892;9.970;2023-06-14T13:00:26;24.40;44.90
35463;DHT22;21578;47.892;9.970;2023-06-14T13:05:16;24.20;45.50
35463;DHT22;21578;47.892;9.970;2023-06-14T13:10:09;24.70;43.70
35463;DHT22;21578;47.892;9.970;2023-06-14T13:14:56;24.80;44.90
35463;DHT22;21578;47.892;9.970;2023-06-14T13:19:43;25.00;43.50
35463;DHT22;21578;47.892;9.970;2023-06-14T13:24:33;25.10;43.90
35463;DHT22;21578;47.892;9.970;2023-06-14T13:29:20;24.50;44.50
35463;DHT22;21578;47.892;9.970;2023-06-14T14:07:55;26.30;42.00
35463;DHT22;21578;47.892;9.970;2023-06-14T14:12:43;26.50;41.40
35463;DHT22;21578;47.892;9.970;2023-06-14T14:17:31;25.90;41.10
35463;DHT22;21578;47.892;9.970;2023-06-14T14:22:18;25.60;42.30
35463;DHT22;21578;47.892;9.970;2023-06-14T14:27:07;25.70;41.00
35463;DHT22;21578;47.892;9.970;2023-06-14T14:31:54;26.40;41.50
35463;DHT22;21578;47.892;9.970;2023-06-14T14:36:41;27.10;40.90
35463;DHT22;21578;47.892;9.970;2023-06-14T14:41:28;26.60;41.30
35463;DHT22;21578;47.892;9.970;2023-06-14T14:46:16;25.70;41.90
35463;DHT22;21578;47.892;9.970;2023-06-14T14:51:03;25.50;42.00
35463;DHT22;21578;47.892;9.970;2023-06-14T14:55:50;26.10;42.20
35463;DHT22;21578;47.892;9.970;2023-06-14T15:00:37;26.70;40.60
35463;DHT22;21578;47.892;9.970;2023-06-14T15:05:25;27.00;39.70
35463;DHT22;21578;47.892;9.970;2023-06-14T15:10:12;26.20;40.60
35463;DHT22;21578;47.892;9.970;2023-06-14T15:15:00;26.00;41.60
35463;DHT22;21578;47.892;9.970;2023-06-14T15:19:47;25.50;42.20
35463;DHT22;21578;47.892;9.970;2023-06-14T15:24:35;25.80;41.20
35463;DHT22;21578;47.892;9.970;2023-06-14T15:29:22;26.10;41.30
35463;DHT22;21578;47.892;9.970;2023-06-14T15:34:09;26.00;41.70
35463;DHT22;21578;47.892;9.970;2023-06-14T15:38:56;26.50;41.20
35463;DHT22;21578;47.892;9.970;2023-06-14T15:43:44;26.50;41.10
35463;DHT22;21578;47.892;9.970;2023-06-14T15:48:31;26.10;41.30
35463;DHT22;21578;47.892;9.970;2023-06-14T15:53:19;25.80;42.20
35463;DHT22;21578;47.892;9.970;2023-06-14T15:58:06;25.60;42.00
35463;DHT22;21578;47.892;9.970;2023-06-14T16:02:54;26.30;42.10
35463;DHT22;21578;47.892;9.970;2023-06-14T16:07:41;25.90;42.20
35463;DHT22;21578;47.892;9.970;2023-06-14T16:12:28;26.30;43.10
35463;DHT22;21578;47.892;9.970;2023-06-14T16:17:15;26.40;41.60
35463;DHT22;21578;47.892;9.970;2023-06-14T16:22:03;26.80;40.10
35463;DHT22;21578;47.892;9.970;2023-06-14T16:26:51;27.20;39.80
35463;DHT22;21578;47.892;9.970;2023-06-14T16:31:39;26.20;41.00
35463;DHT22;21578;47.892;9.970;2023-06-14T16:36:26;25.90;41.70
35463;DHT22;21578;47.892;9.970;2023-06-14T16:41:14;25.80;42.10
35463;DHT22;21578;47.892;9.970;2023-06-14T16:46:01;26.00;42.20
35463;DHT22;21578;47.892;9.970;2023-06-14T16:50:48;26.20;41.70
35463;DHT22;21578;47.892;9.970;2023-06-14T16:55:35;25.90;42.70
35463;DHT22;21578;47.892;9.970;2023-06-14T17:00:25;25.70;42.60
35463;DHT22;21578;47.892;9.970;2023-06-14T17:05:12;25.90;42.70
35463;DHT22;21578;47.892;9.970;2023-06-14T17:09:59;26.50;42.00
35463;DHT22;21578;47.892;9.970;2023-06-14T17:14:46;26.10;42.00
35463;DHT22;21578;47.892;9.970;2023-06-14T17:19:35;25.90;43.10
35463;DHT22;21578;47.892;9.970;2023-06-14T17:24:22;25.80;43.00
35463;DHT22;21578;47.892;9.970;2023-06-14T17:29:09;26.00;42.90
35463;DHT22;21578;47.892;9.970;2023-06-14T17:33:56;25.70;43.70
35463;DHT22;21578;47.892;9.970;2023-06-14T17:38:44;25.80;43.60
35463;DHT22;21578;47.892;9.970;2023-06-14T17:43:31;25.20;44.40
35463;DHT22;21578;47.892;9.970;2023-06-14T17:48:18;25.30;45.10
35463;DHT22;21578;47.892;9.970;2023-06-14T17:53:05;25.10;43.90
35463;DHT22;21578;47.892;9.970;2023-06-14T17:57:53;25.10;44.00
35463;DHT22;21578;47.892;9.970;2023-06-14T18:02:40;25.20;43.90
35463;DHT22;21578;47.892;9.970;2023-06-14T18:07:27;25.20;44.20
35463;DHT22;21578;47.892;9.970;2023-06-14T18:12:14;25.20;43.90
35463;DHT22;21578;47.892;9.970;2023-06-14T18:17:03;25.10;44.50
35463;DHT22;21578;47.892;9.970;2023-06-14T18:21:50;24.90;45.00
35463;DHT22;21578;47.892;9.970;2023-06-14T18:26:37;24.30;46.20
35463;DHT22;21578;47.892;9.970;2023-06-14T18:31:24;24.30;46.50
35463;DHT22;21578;47.892;9.970;2023-06-14T18:36:12;24.20;46.90
35463;DHT22;21578;47.892;9.970;2023-06-14T18:40:59;24.00;47.30
35463;DHT22;21578;47.892;9.970;2023-06-14T18:45:46;23.90;47.70
35463;DHT22;21578;47.892;9.970;2023-06-14T18:50:33;23.40;48.60
35463;DHT22;21578;47.892;9.970;2023-06-14T18:55:21;22.90;49.50
35463;DHT22;21578;47.892;9.970;2023-06-14T19:00:09;22.40;50.70
35463;DHT22;21578;47.892;9.970;2023-06-14T19:04:57;22.00;51.30
35463;DHT22;21578;47.892;9.970;2023-06-14T19:09:44;21.80;52.10
35463;DHT22;21578;47.892;9.970;2023-06-14T19:14:32;21.60;52.80
35463;DHT22;21578;47.892;9.970;2023-06-14T19:19:19;21.50;53.40
35463;DHT22;21578;47.892;9.970;2023-06-14T19:24:06;21.30;53.80
35463;DHT22;21578;47.892;9.970;2023-06-14T19:28:54;21.10;54.50
35463;DHT22;21578;47.892;9.970;2023-06-14T19:33:43;21.00;54.80
35463;DHT22;21578;47.892;9.970;2023-06-14T19:38:30;20.90;55.40
35463;DHT22;21578;47.892;9.970;2023-06-14T19:43:27;20.80;55.40
35463;DHT22;21578;47.892;9.970;2023-06-14T19:48:14;20.60;56.00
35463;DHT22;21578;47.892;9.970;2023-06-14T19:53:02;20.30;57.10
35463;DHT22;21578;47.892;9.970;2023-06-14T19:57:49;20.20;57.30
35463;DHT22;21578;47.892;9.970;2023-06-14T20:02:36;20.10;57.70
35463;DHT22;21578;47.892;9.970;2023-06-14T20:07:25;20.10;57.90
35463;DHT22;21578;47.892;9.970;2023-06-14T20:12:13;19.90;58.40
35463;DHT22;21578;47.892;9.970;2023-06-14T20:17:00;19.70;59.20
35463;DHT22;21578;47.892;9.970;2023-06-14T20:21:47;19.60;59.50
35463;DHT22;21578;47.892;9.970;2023-06-14T20:26:41;19.50;59.80
35463;DHT22;21578;47.892;9.970;2023-06-14T20:31:35;19.30;60.60
35463;DHT22;21578;47.892;9.970;2023-06-14T20:36:22;19.20;61.20
35463;DHT22;21578;47.892;9.970;2023-06-14T20:41:09;19.20;61.30
35463;DHT22;21578;47.892;9.970;2023-06-14T20:45:56;19.00;61.70
35463;DHT22;21578;47.892;9.970;2023-06-14T20:50:45;18.90;62.40
35463;DHT22;21578;47.892;9.970;2023-06-14T20:55:32;18.80;62.60
35463;DHT22;21578;47.892;9.970;2023-06-14T21:00:19;18.80;63.10
35463;DHT22;21578;47.892;9.970;2023-06-14T21:05:07;18.70;63.20
35463;DHT22;21578;47.892;9.970;2023-06-14T21:09:55;18.60;63.60
35463;DHT22;21578;47.892;9.970;2023-06-14T21:14:42;18.50;63.90
35463;DHT22;21578;47.892;9.970;2023-06-14T21:19:29;18.40;64.20
35463;DHT22;21578;47.892;9.970;2023-06-14T21:24:16;18.30;64.30
35463;DHT22;21578;47.892;9.970;2023-06-14T21:29:04;18.30;64.60
35463;DHT22;21578;47.892;9.970;2023-06-14T21:33:51;18.20;64.90
35463;DHT22;21578;47.892;9.970;2023-06-14T21:38:38;18.10;65.40
35463;DHT22;21578;47.892;9.970;2023-06-14T21:43:25;18.10;65.40
35463;DHT22;21578;47.892;9.970;2023-06-14T21:48:14;17.90;66.10
35463;DHT22;21578;47.892;9.970;2023-06-14T21:53:00;17.70;66.40
35463;DHT22;21578;47.892;9.970;2023-06-14T21:57:47;17.50;67.10
35463;DHT22;21578;47.892;9.970;2023-06-14T22:02:34;17.50;67.40
35463;DHT22;21578;47.892;9.970;2023-06-14T22:07:22;17.40;67.60
35463;DHT22;21578;47.892;9.970;2023-06-14T22:12:10;17.40;67.50
35463;DHT22;21578;47.892;9.970;2023-06-14T22:17:01;17.40;67.40
35463;DHT22;21578;47.892;9.970;2023-06-14T22:21:48;17.30;67.30
35463;DHT22;21578;47.892;9.970;2023-06-14T22:26:42;17.20;68.30
35463;DHT22;21578;47.892;9.970;2023-06-14T22:31:32;17.10;68.50
35463;DHT22;21578;47.892;9.970;2023-06-14T22:36:22;17.10;68.90
35463;DHT22;21578;47.892;9.970;2023-06-14T22:41:10;17.10;68.50
35463;DHT22;21578;47.892;9.970;2023-06-14T22:45:59;17.00;69.00
35463;DHT22;21578;47.892;9.970;2023-06-14T22:50:46;16.90;69.00
35463;DHT22;21578;47.892;9.970;2023-06-14T22:55:33;16.90;69.20
35463;DHT22;21578;47.892;9.970;2023-06-14T23:00:20;16.80;69.50
35463;DHT22;21578;47.892;9.970;2023-06-14T23:05:09;16.80;70.10
35463;DHT22;21578;47.892;9.970;2023-06-14T23:09:57;16.70;70.40
35463;DHT22;21578;47.892;9.970;2023-06-14T23:14:44;16.50;71.50
35463;DHT22;21578;47.892;9.970;2023-06-14T23:19:31;16.40;71.60
35463;DHT22;21578;47.892;9.970;2023-06-14T23:24:19;16.40;71.40
35463;DHT22;21578;47.892;9.970;2023-06-14T23:29:06;16.30;71.60
35463;DHT22;21578;47.892;9.970;2023-06-14T23:33:54;16.20;72.00
35463;DHT22;21578;47.892;9.970;2023-06-14T23:38:41;16.00;72.10
35463;DHT22;21578;47.892;9.970;2023-06-14T23:43:30;16.00;72.40
35463;DHT22;21578;47.892;9.970;2023-06-14T23:48:19;15.90;72.60
35463;DHT22;21578;47.892;9.970;2023-06-14T23:53:06;15.90;72.80
35463;DHT22;21578;47.892;9.970;2023-06-14T23:57:53;15.80;73.20
